Weather observations for the past three days for
VC Bird International Airport
Metric (Imperial)
Date Time (ast) Wind (kph) Vis. (km) Weather Sky Cond. Temperature (ºC) Relative Humidity Wind Chill (°C) Heat Index (°C) Pressure Precipitation (cm)
Air Dwpt 6 hour altimeter (cm) sea level (mb) 1 hr 3 hr 6 hr
Max. Min.
07 15:00 E 17 0.00 A Few Clouds FEW022 29 21 62% 31 0 0.0
07 14:00 E 19 0.00 A Few Clouds FEW023 29 21 62% 31 0 0.0
07 13:00 E 19 0.00 A Few Clouds FEW022 29 20 58% 31 0 0.0
07 12:00 E 19 0.00 Partly Cloudy SCT022 29 21 62% 31 0 0.0
07 11:00 E 20 0.00 Partly Cloudy SCT021 29 22 66% 32 0 0.0
07 10:00 E 20 0.00 Partly Cloudy SCT020 28 22 70% 31 0 0.0
07 09:00 E 15 0.00 Partly Cloudy SCT020 28 21 66% 30 0 0.0
07 08:00 E 17 0.00 Partly Cloudy SCT020 28 22 70% 31 0 0.0
07 07:00 E 11 0.00 A Few Clouds FEW019 26 21 74% 27 0 0.0
07 06:00 SE 6 0.00 Partly Cloudy SCT018 25 21 79% 26 0 0.0
07 05:00 Vrbl 4 0.00 Partly Cloudy SCT018 25 21 79% 26 0 0.0
07 04:00 E 6 0.00 A Few Clouds FEW018 25 21 79% 26 0 0.0
07 03:00 SE 6 0.00 Partly Cloudy SCT018 25 21 79% 26 0 0.0
07 02:00 E 9 0.00 A Few Clouds FEW018 26 21 74% 27 0 0.0
07 01:00 E 9 0.00 A Few Clouds FEW018 26 21 74% 27 0 0.0
06 23:00 E 13 0.00 A Few Clouds FEW020 26 21 74% 27 0 0.0
06 22:00 E 13 0.00 A Few Clouds FEW020 26 21 74% 27 0 0.0
06 21:00 E 11 0.00 A Few Clouds FEW020 26 22 79% 28 0 0.0
06 20:00 E 11 0.00 A Few Clouds FEW020 26 21 74% 27 0 0.0
06 19:00 E 13 0.00 A Few Clouds FEW020 26 21 74% 27 0 0.0
06 18:00 E 17 0.00 A Few Clouds FEW020 27 21 70% 29 0 0.0
06 17:00 E 17 0.00 A Few Clouds FEW020 28 21 66% 30 0 0.0
06 16:00 E 17 0.00 A Few Clouds FEW020 29 20 58% 31 0 0.0
06 15:00 E 19 0.00 A Few Clouds FEW020 30 20 55% 32 0 0.0
06 14:00 E 22 0.00 Showers in Vicinity SCT020 29 21 62% 31 0 0.0
06 13:00 E 24 0.00 Showers in Vicinity BKN020 29 22 66% 32 0 0.0
06 12:00 E 20 0.00 Showers in Vicinity SCT018 SCT038 29 22 66% 32 0 0.0
06 11:00 E 20 0.00 Showers in Vicinity BKN018 28 22 70% 31 0 0.0
06 10:00 E 22 0.00 Showers in Vicinity SCT019 29 22 66% 32 0 0.0
06 09:00 E 17 0.00 Partly Cloudy SCT020 28 22 70% 31 0 0.0
06 07:00 E 15 0.00 Mostly Cloudy BKN019 27 22 74% 29 0 0.0
06 06:00 E 15 0.00 Partly Cloudy SCT020 25 22 83% 26 0 0.0
06 05:00 E 15 0.00 Partly Cloudy SCT020 26 22 79% 28 0 0.0
06 04:00 E 15 0.00 Mostly Cloudy BKN018 26 22 79% 28 0 0.0
06 03:00 E 15 0.00 Mostly Cloudy BKN018 26 22 79% 28 0 0.0
06 02:00 E 13 0.00 Mostly Cloudy BKN018 26 22 79% 28 0 0.0
06 01:00 E 13 0.00 Partly Cloudy SCT018 25 22 83% 26 0 0.0
06 00:00 E 15 0.00 Showers in Vicinity SCT016 26 22 79% 28 0 0.0
05 23:00 E 15 0.00 Showers in Vicinity BKN016 26 22 79% 28 0 0.0
05 22:00 E 15 0.00 A Few Clouds FEW018 26 22 79% 28 0 0.0
05 21:00 E 11 0.00 Partly Cloudy SCT018 26 22 79% 28 0 0.0
05 20:00 SE 9 0.00 A Few Clouds FEW018 26 22 79% 28 0 0.0
05 19:00 E 13 0.00 Partly Cloudy SCT018 26 22 79% 28 0 0.0
05 18:00 E 13 0.00 A Few Clouds FEW022 27 22 74% 29 0 0.0
05 17:00 E 15 0.00 A Few Clouds FEW022 28 22 70% 31 0 0.0
05 16:00 E 20 0.00 Partly Cloudy SCT022 28 22 70% 31 0 0.0
05 15:00 E 22 0.00 Partly Cloudy SCT022 28 22 70% 31 0 0.0
05 14:00 E 22 0.00 Partly Cloudy SCT022 29 21 62% 31 0 0.0
05 13:00 E 26 0.00 Partly Cloudy SCT021 29 21 62% 31 0 0.0
05 12:00 E 22 0.00 Partly Cloudy SCT020 29 21 62% 31 0 0.0
05 11:00 E 19 0.00 Partly Cloudy SCT020 29 21 62% 31 0 0.0
05 10:00 E 19 0.00 Partly Cloudy SCT020 27 22 74% 29 0 0.0
05 09:00 E 19 G 37 0.00 Light Showers Rain BKN018 BKN038 25 22 83% 26 0 0.0
05 08:00 E 17 0.00 Showers in Vicinity BKN018 27 22 74% 29 0 0.0
05 07:00 SE 9 0.00 Showers in Vicinity SCT018 BKN038 25 23 89% 26 0 0.0
05 06:00 E 17 0.00 Light Showers Rain BKN016 BKN034 24 22 89% 24 0 0.0
05 05:00 E 15 0.00 Light Showers Rain SCT018 BKN036 26 22 79% 28 0 0.0
05 04:00 E 22 0.00 Showers in Vicinity BKN018 SCT037 25 23 89% 26 0 0.0
05 03:00 E 13 0.00 Mostly Cloudy FEW018 BKN037 26 22 79% 28 0 0.0
05 02:00 E 11 0.00 Partly Cloudy SCT018 SCT038 26 22 79% 28 0 0.0
05 01:00 E 15 0.00 A Few Clouds FEW018 26 22 79% 28 0 0.0
05 00:00 E 15 0.00 Mostly Cloudy FEW020 BKN038 26 22 79% 28 0 0.0
04 23:00 E 15 0.00 Light Showers Rain BKN020 26 22 79% 28 0 0.0
04 22:00 E 11 0.00 Showers in Vicinity BKN020 26 22 79% 28 0 0.0
04 21:00 SE 7 0.00 A Few Clouds FEW020 26 22 79% 28 0 0.0
04 20:00 SE 9 0.00 Showers in Vicinity FEW020 26 22 79% 28 0 0.0
04 19:00 SE 9 0.00 Showers in Vicinity SCT020 26 22 79% 28 0 0.0
04 18:00 SE 11 0.00 Mostly Cloudy SCT016 BKN034 26 22 79% 28 0 0.0
04 17:00 E 11 0.00 Showers in Vicinity BKN017 26 23 84% 28 0 0.0
04 16:00 E 17 0.00 Partly Cloudy SCT017 28 23 74% 31 0 0.0
Date Time (ast) Wind (kph) Vis. (km) Weather Sky Cond. Air Dwpt Max. Min. Relative Humidity Wind Chill (°C) Heat Index (°C) altimeter (cm) sea level (mb) 1 hr 3 hr 6 hr
6 hour
Temperature (ºC) Pressure Precipitation (cm)